Luka González

Recruteur - Real Sociedad
3 Déc 2028
Dimanche
Processus

Personnalité

Adaptabilité (18) Ambition (12) Controverse (11) Loyauté (14) Pression (2) Professionnalisme (3) Sportivité (10) Tempérament (11)

Profil

Style d'entraînement Démocratique
Diplôme Continental B
Détermination 11
Gestion des joueurs 7
Motivation 8
Discipline 7
Satisfaction professionnelle
100%
Fatigue
0%
Rôle Recruteur
Salaire 86.6K p/s
Contrat 14.03.2030

Performance

Comportement Bon
Efficacité de l'entraînement
61%
Développement des joueurs
65%
Prévention des blessures
60%
Mise en place tactique
50%

Événements récents

A participé à une réunion de recrutement maintenant
A recommandé une cible de transfert maintenant
A observé un match maintenant
A observé un match maintenant
A observé un match maintenant
A observé un match 7j
A observé un match 7j
A observé un match 7j

Suivi en cours

53
Joueur Club Statut Capacité Confiance Observé Dernière observation Dernier vote
Cucho Hernández Granada Perdu 148 / 151 79% 1 26.06.2028 -
Chupete Málaga Rapport prêt 134 / 137 79% 1 03.06.2028 Approuver
Andrea Luongo Trento Actif 99 / 100 40% 1 02.06.2028 -
Prosper Peter Olympique Lyonnais Perdu 122 / 129 40% 1 02.06.2028 -
Tiziano Perrotta Mirandés Actif 104 / 113 40% 1 02.06.2028 -
Anthony Gordon Barcelona Refusé 172 / 172 69% 1 31.01.2028 Refuser
Rémi Himbert AC Ajaccio Actif 123 / 120 40% 1 24.01.2028 -
Mamadou Doumbia Rotherham United Actif 120 / 129 40% 1 24.01.2028 -
Siyabonga Mabena Bidvest Wits Actif 131 / 132 40% 1 31.12.2027 -
Ryan Kavuma-McQueen Accrington Stanley Actif 121 / 121 40% 1 31.12.2027 -
Sascha Britschgi AC Milan Actif 118 / 123 40% 1 24.05.2027 -
Yusi Alavés Actif 136 / 140 40% 3 22.05.2027 -
Yussif Saidu Zaragoza Actif 129 / 122 40% 2 22.05.2027 -
Lucas Høgsberg RC Strasbourg Actif 138 / 144 40% 1 19.05.2027 -
Caleb Yirenkyi Coventry City Actif 127 / 137 40% 2 14.05.2027 -
Gabriele Bertolini Vicenza Actif 105 / 107 40% 1 08.05.2027 -
Victor Froholdt Porto Actif 154 / 159 40% 1 06.05.2027 -
Miguel Figueiredo Benfica Actif 104 / 124 40% 1 05.05.2027 -
Zane Albarus Shrewsbury Town Actif 85 / 101 40% 1 05.05.2027 -
Victor Hernandez Santa Fe Actif 119 / 128 40% 1 05.05.2027 -
David Mella Deportivo La Coruña Actif 122 / 125 40% 2 04.05.2027 -
Mateus Mané Burnley Actif 141 / 140 40% 1 04.05.2027 -
Chemsdine Talbi Sunderland Actif 135 / 149 40% 2 03.05.2027 -
Manu Rodríguez Gijón Actif 106 / 115 40% 1 03.05.2027 -
Izan Merino Málaga Actif 127 / 123 40% 1 03.05.2027 -
Ethan Williams Peterborough United Actif 119 / 125 40% 1 30.04.2027 -
Calum Agius Crewe Alexandra Actif 91 / 92 40% 2 28.04.2027 -
Mohamadou Kanté Crawley Town Actif 124 / 124 40% 1 23.04.2027 -
Oscar Schwartau Norwich City Actif 117 / 133 40% 1 19.04.2027 -
Jenson Jones Walsall Actif 99 / 105 40% 1 18.04.2027 -
Pau Navarro Villarreal Actif 147 / 150 40% 1 18.04.2027 -
Mathys Tel Tottenham Actif 141 / 152 40% 1 18.04.2027 -
Agustín Nogueira Barracas Central Actif 91 / 90 40% 1 15.03.2027 -
Luca Martelli Forli Actif 95 / 99 40% 1 14.03.2027 -
Ramiro Buratti River Plate Actif 99 / 92 40% 1 12.03.2027 -
Franco Yennerich Talleres Actif 93 / 97 40% 1 01.03.2027 -
Renato Ardissono San Lorenzo Actif 89 / 93 40% 1 01.03.2027 -
Luis Caicedo Spartak 1918 Actif 87 / 95 40% 1 31.12.2026 -
Gabriel Martinelli Arsenal Actif 155 / 163 40% 4 24.12.2026 -
Pau Víctor Braga Actif 146 / 141 40% 1 21.12.2026 -
Rayan Cherki Manchester City Actif 174 / 163 40% 2 19.12.2026 -
Justo Giani Umraniyespor Actif 131 / 116 40% 1 08.12.2026 -
Hugo Ekitiké Liverpool Actif 155 / 156 40% 2 03.12.2026 -
Ivo Mammini Beitar Jerusalem Actif 104 / 122 40% 2 03.12.2026 -
Troy Parrott Betis Actif 140 / 130 40% 1 18.11.2026 -
Alexander Díaz Deportivo Riestra Actif 109 / 111 40% 2 17.11.2026 -
Roberto Fernández Braga Perdu 135 / 143 40% 1 15.11.2026 -
Cody Gakpo Liverpool Actif 161 / 153 40% 1 08.11.2026 -
Iliman N'Diaye Everton Actif 162 / 158 40% 1 08.11.2026 -
João Pedro Chelsea Actif 140 / 151 40% 1 04.11.2026 -
Lucas Varaldo Morelia Actif 111 / 127 40% 2 03.11.2026 -
Bradley Barcola Liverpool Actif 165 / 168 40% 1 19.10.2026 -
Juan Cruz de los Santos Nacional Actif 130 / 127 40% 1 06.10.2026 -